Terminal Aerodrome Forecast
Issued by NWS

Home | Current Version | Previous Version | Text Only | Print | Product List | Glossary On
Versions: 1 2 3 4 5 6 7 8 9 10 11 12 13 14 15 16 17 18 19 20 21 22 23 24 25 26 27 28 29 30 31 32 33 34 35 36
000
FTUS41 KBOX 251725
TAFBED
TAF
KBED 251725Z 2518/2618 23006KT P6SM SCT050
     FM252100 23011G20KT P6SM VCSH BKN050
     FM260100 26007KT P6SM BKN050
     FM260600 27010KT P6SM SKC
     FM261600 26010KT P6SM FEW050=

USA.gov is the U.S. government's official web portal to all federal, state and local government web resources and services.